Time;durP1;ratioP1;P1;durP2;ratioP2;P2;SDS_P1;SDS_P2;PMS_P1;PMS_P2;Temp;Humidity;BMP_temperature;BMP_pressure;BME280_temperature;BME280_humidity;BME280_pressure;Samples;Min_cycle;Max_cycle;Signal;HPM_P1;HPM_P2
2023/03/03 00:00:07;;;;;;;;;32.33;25.67;;;;;-2.48;100.00;98720.94;4801470;29;102436;-68
2023/03/03 00:02:34;;;;;;;;;94.75;70.75;;;;;-2.70;99.93;98722.56;4794405;29;102282;-68
2023/03/03 00:05:01;;;;;;;;;79.25;61.50;;;;;-2.67;100.00;98710.91;4799184;29;102555;-68
2023/03/03 00:07:28;;;;;;;;;91.25;67.25;;;;;-2.74;100.00;98715.81;4800554;29;104137;-68
2023/03/03 00:09:55;;;;;;;;;98.75;72.75;;;;;-2.80;100.00;98708.34;4800157;29;102734;-68
2023/03/03 00:12:28;;;;;;;;;103.25;74.25;;;;;-2.86;100.00;98722.03;4799888;29;102410;-68
2023/03/03 00:14:55;;;;;;;;;73.50;59.75;;;;;-2.90;100.00;98715.28;4799293;29;102508;-68
2023/03/03 00:17:31;;;;;;;;;97.50;67.00;;;;;-2.89;100.00;98722.25;4801179;29;104032;-68
2023/03/03 00:19:58;;;;;;;;;105.25;75.00;;;;;-2.97;100.00;98714.03;4801746;29;102422;-68
2023/03/03 00:22:35;;;;;;;;;107.25;79.75;;;;;-3.02;100.00;98710.91;4797217;29;102604;-68
2023/03/03 00:25:18;;;;;;;;;103.00;74.50;;;;;-3.00;100.00;98714.25;4799306;29;102078;-68
2023/03/03 00:27:45;;;;;;;;;107.00;75.00;;;;;-3.07;100.00;98702.47;4798480;29;108340;-69
2023/03/03 00:30:26;;;;;;;;;96.75;70.00;;;;;-3.14;100.00;98690.63;4801083;29;102377;-69
2023/03/03 00:32:54;;;;;;;;;91.50;67.00;;;;;-3.17;100.00;98683.78;4799247;29;104140;-68
2023/03/03 00:35:34;;;;;;;;;98.75;70.00;;;;;-3.06;100.00;98704.13;4803064;29;102399;-68
2023/03/03 00:38:11;;;;;;;;;93.25;68.75;;;;;-3.11;100.00;98690.44;4796035;29;104133;-69
2023/03/03 00:40:39;;;;;;;;;94.50;73.75;;;;;-3.12;100.00;98701.97;4796931;29;102815;-69
2023/03/03 00:43:24;;;;;;;;;99.75;73.75;;;;;-3.16;100.00;98698.69;4802742;29;102943;-68
2023/03/03 00:45:53;;;;;;;;;84.75;62.25;;;;;-3.09;100.00;98699.06;4802533;29;102441;-69
2023/03/03 00:48:27;;;;;;;;;78.25;59.50;;;;;-3.04;100.00;98701.38;4798747;29;104069;-69
2023/03/03 00:50:57;;;;;;;;;91.75;65.50;;;;;-3.02;100.00;98705.63;4800293;29;102335;-69
2023/03/03 00:53:26;;;;;;;;;113.50;75.50;;;;;-3.10;100.00;98696.53;4801397;29;102136;-69
2023/03/03 00:55:54;;;;;;;;;98.75;71.50;;;;;-3.11;100.00;98695.72;4798290;29;102187;-69
2023/03/03 00:58:23;;;;;;;;;93.75;70.75;;;;;-3.13;100.00;98707.34;4794948;29;103967;-69
2023/03/03 01:00:55;;;;;;;;;88.00;63.25;;;;;-3.12;100.00;98695.81;4794003;29;102510;-69
2023/03/03 01:03:25;;;;;;;;;75.50;57.50;;;;;-3.08;100.00;98699.94;4801733;29;102428;-69
2023/03/03 01:05:53;;;;;;;;;73.25;57.50;;;;;-3.11;100.00;98697.53;4803874;29;102388;-69
2023/03/03 01:08:21;;;;;;;;;91.75;67.00;;;;;-3.15;100.00;98688.94;4797180;29;103974;-70
2023/03/03 01:10:57;;;;;;;;;89.25;63.00;;;;;-3.24;100.00;98700.19;4797381;29;104083;-69
2023/03/03 01:13:30;;;;;;;;;97.25;72.00;;;;;-3.33;100.00;98691.13;4799252;29;102078;-69
2023/03/03 01:15:58;;;;;;;;;91.00;63.25;;;;;-3.25;100.00;98688.81;4797009;29;104962;-69
2023/03/03 01:18:26;;;;;;;;;83.50;60.00;;;;;-3.19;100.00;98687.47;4800524;29;104006;-68
2023/03/03 01:20:53;;;;;;;;;86.25;61.00;;;;;-3.17;100.00;98682.94;4798173;29;103991;-68
2023/03/03 01:23:20;;;;;;;;;93.00;67.50;;;;;-3.17;100.00;98673.22;4801853;29;102414;-70
2023/03/03 01:25:48;;;;;;;;;85.25;64.75;;;;;-3.20;100.00;98681.34;4803258;29;102999;-68
2023/03/03 01:28:15;;;;;;;;;70.25;55.00;;;;;-3.13;100.00;98671.19;4800097;29;104015;-68
2023/03/03 01:30:42;;;;;;;;;74.00;53.00;;;;;-3.13;100.00;98665.88;4793380;29;102527;-68
2023/03/03 01:33:09;;;;;;;;;103.25;70.75;;;;;-3.23;100.00;98664.88;4798772;29;102290;-69
2023/03/03 01:35:36;;;;;;;;;95.25;66.75;;;;;-3.29;100.00;98660.06;4803657;29;102166;-69
2023/03/03 01:38:03;;;;;;;;;91.25;66.75;;;;;-3.40;100.00;98646.78;4798461;29;110538;-69
2023/03/03 01:40:30;;;;;;;;;72.75;55.75;;;;;-3.25;100.00;98656.22;4797580;29;102344;-69
2023/03/03 01:43:00;;;;;;;;;62.75;44.75;;;;;-3.22;100.00;98653.34;4800524;29;103589;-69
2023/03/03 01:45:42;;;;;;;;;81.25;60.75;;;;;-3.32;100.00;98654.97;4784383;29;102428;-69
2023/03/03 01:48:22;;;;;;;;;91.75;64.00;;;;;-3.39;100.00;98653.75;4792209;29;108694;-69
2023/03/03 01:50:53;;;;;;;;;74.75;57.75;;;;;-3.36;100.00;98648.25;4795140;29;102332;-70
2023/03/03 01:53:37;;;;;;;;;99.50;68.25;;;;;-3.43;100.00;98652.31;4799517;29;102345;-68
2023/03/03 01:56:07;;;;;;;;;72.00;53.25;;;;;-3.36;100.00;98641.16;4800086;29;102457;-69
2023/03/03 01:58:39;;;;;;;;;61.25;49.00;;;;;-3.36;100.00;98640.31;4795405;29;108818;-69
2023/03/03 02:01:19;;;;;;;;;75.00;54.50;;;;;-3.37;100.00;98646.53;4795735;29;102229;-69
2023/03/03 02:03:47;;;;;;;;;89.75;65.00;;;;;-3.46;100.00;98649.88;4787627;29;102133;-69
2023/03/03 02:06:18;;;;;;;;;90.75;70.50;;;;;-3.52;100.00;98647.69;4793167;29;102255;-69
2023/03/03 02:09:21;;;;;;;;;90.50;65.50;;;;;-3.48;100.00;98654.44;4795884;29;103925;-69
2023/03/03 02:12:09;;;;;;;;;68.50;54.00;;;;;-3.40;100.00;98658.19;4800962;29;102373;-69
2023/03/03 02:14:45;;;;;;;;;53.25;43.50;;;;;-3.35;100.00;98649.94;4795547;29;103163;-69
2023/03/03 02:17:22;;;;;;;;;53.00;41.00;;;;;-3.32;100.00;98639.13;4799012;29;101948;-70
2023/03/03 02:20:37;;;;;;;;;21.33;18.33;;;;;-3.30;100.00;98650.44;4782203;29;108291;-70
2023/03/03 02:23:28;;;;;;;;;33.33;24.67;;;;;-3.31;100.00;98652.22;4796382;29;102359;-70
2023/03/03 02:26:06;;;;;;;;;18.00;13.67;;;;;-3.31;100.00;98654.03;4800076;29;102213;-70
2023/03/03 02:28:35;;;;;;;;;79.75;56.25;;;;;-3.47;100.00;98661.41;4802169;29;102306;-69
2023/03/03 02:31:06;;;;;;;;;73.50;55.75;;;;;-3.48;99.92;98657.94;4794948;29;103707;-70
2023/03/03 02:33:33;;;;;;;;;87.00;64.00;;;;;-3.50;100.00;98658.97;4799971;29;102235;-69
2023/03/03 02:36:00;;;;;;;;;87.25;66.25;;;;;-3.55;100.00;98669.03;4800213;29;102320;-69
2023/03/03 02:38:35;;;;;;;;;93.50;63.00;;;;;-3.52;100.00;98658.25;4799072;29;102299;-69
2023/03/03 02:41:26;;;;;;;;;73.50;59.00;;;;;-3.51;100.00;98659.94;4796386;29;103801;-69
2023/03/03 02:44:01;;;;;;;;;58.00;43.25;;;;;-3.47;100.00;98656.13;4799219;29;102823;-69
2023/03/03 02:46:33;;;;;;;;;58.50;46.00;;;;;-3.52;100.00;98656.47;4799209;29;102126;-70
2023/03/03 02:49:00;;;;;;;;;81.25;58.25;;;;;-3.62;100.00;98661.56;4802504;29;101973;-70
2023/03/03 02:51:27;;;;;;;;;66.75;52.25;;;;;-3.58;100.00;98659.53;4797657;29;104095;-70
2023/03/03 02:53:54;;;;;;;;;53.25;43.25;;;;;-3.54;100.00;98654.88;4800827;29;102741;-70
2023/03/03 02:56:21;;;;;;;;;43.25;37.50;;;;;-3.51;100.00;98654.66;4799398;29;102149;-69
2023/03/03 02:58:49;;;;;;;;;41.33;35.00;;;;;-3.54;99.90;98644.31;4799721;29;103665;-69
2023/03/03 03:01:16;;;;;;;;;33.33;26.33;;;;;-3.49;100.00;98647.44;4798514;29;104288;-70
2023/03/03 03:03:43;;;;;;;;;30.00;22.67;;;;;-3.48;99.56;98651.78;4798786;29;102314;-70
2023/03/03 03:06:10;;;;;;;;;27.33;23.33;;;;;-3.51;99.07;98650.19;4797860;29;102037;-69
2023/03/03 03:08:37;;;;;;;;;18.67;15.33;;;;;-3.51;98.70;98654.66;4802195;29;102194;-70
2023/03/03 03:11:04;;;;;;;;;25.33;16.67;;;;;-3.53;98.91;98656.56;4800496;29;108606;-70
2023/03/03 03:13:32;;;;;;;;;16.33;13.67;;;;;-3.56;97.40;98648.88;4797241;29;102371;-69
2023/03/03 03:15:59;;;;;;;;;17.67;16.67;;;;;-3.58;97.12;98656.06;4797873;29;102296;-70
2023/03/03 03:18:27;;;;;;;;;27.00;26.33;;;;;-3.63;97.04;98653.75;4799022;29;103034;-70
2023/03/03 03:20:54;;;;;;;;;23.67;19.00;;;;;-3.65;97.09;98648.56;4798251;29;104022;-70
2023/03/03 03:23:21;;;;;;;;;25.67;16.67;;;;;-3.65;97.08;98645.09;4800661;29;102912;-70
2023/03/03 03:25:48;;;;;;;;;19.33;12.67;;;;;-3.68;96.37;98640.88;4798482;29;102435;-70
2023/03/03 03:28:16;;;;;;;;;38.50;31.50;;;;;-3.86;97.55;98633.44;4798674;29;102347;-70
2023/03/03 03:30:44;;;;;;;;;63.25;41.75;;;;;-3.76;98.02;98645.03;4797937;29;104009;-69
2023/03/03 03:33:11;;;;;;;;;45.25;32.00;;;;;-3.74;97.88;98643.94;4799305;29;102652;-70
2023/03/03 03:35:44;;;;;;;;;34.75;27.00;;;;;-3.73;98.38;98650.06;4801920;29;102307;-69
2023/03/03 03:38:12;;;;;;;;;77.75;56.25;;;;;-3.82;97.92;98641.03;4800694;29;102550;-69
2023/03/03 03:40:39;;;;;;;;;82.00;56.75;;;;;-3.91;98.61;98641.69;4796506;29;103877;-70
2023/03/03 03:43:06;;;;;;;;;99.00;67.75;;;;;-4.04;99.55;98638.22;4799848;29;102882;-70
2023/03/03 03:45:33;;;;;;;;;99.00;72.00;;;;;-4.07;99.03;98641.09;4796654;29;105598;-69
2023/03/03 03:48:00;;;;;;;;;90.25;63.25;;;;;-4.06;99.01;98640.16;4801061;29;102512;-70
2023/03/03 03:50:27;;;;;;;;;86.50;68.50;;;;;-4.10;98.85;98638.69;4798705;29;104117;-69
2023/03/03 03:52:54;;;;;;;;;80.00;54.75;;;;;-4.06;98.79;98645.44;4796142;29;102517;-68
2023/03/03 03:55:21;;;;;;;;;63.50;49.25;;;;;-4.04;98.57;98630.31;4799132;29;102748;-68
2023/03/03 03:57:48;;;;;;;;;45.25;36.00;;;;;-4.03;98.15;98634.66;4798633;29;110728;-69
2023/03/03 04:00:16;;;;;;;;;51.00;35.25;;;;;-4.05;97.58;98631.25;4799231;29;104011;-69
2023/03/03 04:02:42;;;;;;;;;76.00;58.00;;;;;-4.14;96.77;98634.56;4802707;29;102444;-69
2023/03/03 04:05:10;;;;;;;;;76.00;56.75;;;;;-4.19;97.51;98642.78;4801611;29;101813;-68
2023/03/03 04:07:36;;;;;;;;;71.50;54.00;;;;;-4.20;97.29;98645.56;4805699;29;102483;-69
2023/03/03 04:10:04;;;;;;;;;72.50;54.25;;;;;-4.21;97.20;98652.63;4804080;29;108873;-69
2023/03/03 04:12:37;;;;;;;;;64.50;49.50;;;;;-4.27;96.94;98645.13;4802716;29;102677;-70
2023/03/03 04:15:09;;;;;;;;;39.75;33.25;;;;;-4.16;97.05;98654.94;4803510;29;101942;-68
2023/03/03 04:17:36;;;;;;;;;43.75;33.00;;;;;-4.19;96.98;98652.53;4804721;29;102430;-68
2023/03/03 04:20:04;;;;;;;;;69.50;57.25;;;;;-4.30;96.43;98665.63;4798901;29;104168;-69
2023/03/03 04:22:32;;;;;;;;;93.00;67.00;;;;;-4.36;97.29;98660.75;4803051;29;102509;-69
2023/03/03 04:25:03;;;;;;;;;81.50;60.25;;;;;-4.35;97.69;98654.53;4798067;29;102080;-68
2023/03/03 04:27:32;;;;;;;;;81.25;52.00;;;;;-4.31;97.30;98656.00;4799573;29;104151;-68
2023/03/03 04:30:00;;;;;;;;;58.75;47.75;;;;;-4.38;96.42;98645.06;4799451;29;104014;-69
2023/03/03 04:32:27;;;;;;;;;63.00;43.25;;;;;-4.31;96.03;98654.22;4802074;29;102448;-68
2023/03/03 04:34:55;;;;;;;;;54.00;42.50;;;;;-4.33;94.82;98644.75;4800875;29;102019;-68
2023/03/03 04:37:35;;;;;;;;;41.50;27.00;;;;;-4.51;93.89;98626.59;4798089;29;102431;-69
2023/03/03 04:40:06;;;;;;;;;73.25;57.50;;;;;-4.47;94.01;98652.75;4796838;29;104622;-69
2023/03/03 04:42:34;;;;;;;;;73.00;53.00;;;;;-4.48;96.51;98643.16;4799885;29;102325;-69
2023/03/03 04:45:01;;;;;;;;;34.00;25.50;;;;;-4.43;96.76;98639.25;4802353;29;102313;-69
2023/03/03 04:47:28;;;;;;;;;63.00;50.00;;;;;-4.52;96.05;98624.91;4800166;29;106178;-68
2023/03/03 04:49:55;;;;;;;;;49.50;41.50;;;;;-4.41;95.90;98647.88;4801194;29;103710;-69
2023/03/03 04:52:22;;;;;;;;;83.50;61.00;;;;;-4.48;96.23;98640.50;4797084;29;102679;-68
2023/03/03 04:54:49;;;;;;;;;95.25;62.50;;;;;-4.53;96.63;98652.22;4799644;29;103573;-68
2023/03/03 04:57:16;;;;;;;;;63.75;49.50;;;;;-4.48;96.84;98645.78;4801039;29;103079;-69
2023/03/03 04:59:43;;;;;;;;;55.75;44.00;;;;;-4.46;96.55;98646.53;4801654;29;104039;-68
2023/03/03 05:02:11;;;;;;;;;90.25;71.50;;;;;-4.58;96.62;98646.44;4802012;29;102303;-69
2023/03/03 05:04:38;;;;;;;;;90.75;64.50;;;;;-4.60;97.20;98648.34;4803335;29;103365;-68
2023/03/03 05:07:05;;;;;;;;;84.75;62.25;;;;;-4.65;96.85;98634.63;4802524;29;102311;-70
2023/03/03 05:09:33;;;;;;;;;69.75;54.50;;;;;-4.60;96.57;98637.78;4779376;29;104031;-68
2023/03/03 05:11:59;;;;;;;;;72.25;53.50;;;;;-4.59;97.20;98641.25;4798850;29;102400;-69
2023/03/03 05:14:27;;;;;;;;;97.00;71.75;;;;;-4.79;97.16;98632.09;4799512;29;102114;-68
2023/03/03 05:16:54;;;;;;;;;84.25;63.50;;;;;-4.78;96.35;98633.78;4796869;29;102537;-69
2023/03/03 05:19:20;;;;;;;;;86.00;62.50;;;;;-4.68;97.38;98649.78;4799959;29;104035;-69
2023/03/03 05:21:47;;;;;;;;;114.00;82.25;;;;;-4.84;98.97;98668.47;4797684;29;102300;-69
2023/03/03 05:24:15;;;;;;;;;115.00;91.50;;;;;-4.89;100.00;98683.75;4800448;29;102184;-69
2023/03/03 05:26:42;;;;;;;;;121.25;86.75;;;;;-4.93;100.00;98681.44;4794968;29;102391;-70
2023/03/03 05:29:09;;;;;;;;;107.25;77.50;;;;;-5.06;100.00;98649.78;4800235;29;103994;-68
2023/03/03 05:31:36;;;;;;;;;108.00;77.50;;;;;-4.81;100.00;98681.44;4795910;29;102343;-68
2023/03/03 05:34:03;;;;;;;;;94.25;69.00;;;;;-4.73;100.00;98678.31;4797442;29;102358;-68
2023/03/03 05:36:30;;;;;;;;;75.00;57.00;;;;;-4.68;99.36;98670.91;4801733;29;102043;-68
2023/03/03 05:38:57;;;;;;;;;99.25;71.50;;;;;-4.84;97.61;98675.53;4799016;29;104021;-68
2023/03/03 05:41:24;;;;;;;;;81.00;65.75;;;;;-4.77;99.39;98690.00;4796682;29;102488;-68
2023/03/03 05:43:51;;;;;;;;;92.50;64.00;;;;;-4.66;100.00;98690.13;4798832;29;102044;-69
2023/03/03 05:46:18;;;;;;;;;66.00;54.25;;;;;-4.53;99.54;98691.81;4800008;29;102221;-69
2023/03/03 05:48:59;;;;;;;;;68.50;50.00;;;;;-4.41;99.46;98681.38;4781854;29;102802;-69
2023/03/03 05:51:26;;;;;;;;;71.75;54.00;;;;;-4.32;99.28;98694.75;4797561;29;102522;-67
2023/03/03 05:53:52;;;;;;;;;58.25;45.75;;;;;-4.21;98.97;98694.88;4796116;29;102336;-68
2023/03/03 05:56:22;;;;;;;;;54.00;43.25;;;;;-4.10;98.84;98696.78;4799105;29;102496;-68
2023/03/03 05:58:49;;;;;;;;;57.25;46.50;;;;;-3.99;99.28;98706.56;4798411;29;103993;-69
2023/03/03 06:01:16;;;;;;;;;87.75;64.00;;;;;-3.90;99.25;98698.84;4795732;29;102330;-68
2023/03/03 06:03:43;;;;;;;;;91.50;70.50;;;;;-3.83;100.00;98699.25;4797981;29;102319;-68
2023/03/03 06:06:11;;;;;;;;;102.50;73.25;;;;;-3.78;100.00;98711.16;4798901;29;102294;-69
2023/03/03 06:08:38;;;;;;;;;98.25;68.00;;;;;-3.69;100.00;98710.50;4798070;29;103986;-68
2023/03/03 06:11:05;;;;;;;;;88.75;60.50;;;;;-3.58;100.00;98719.47;4800658;29;102373;-69
2023/03/03 06:13:31;;;;;;;;;96.75;69.00;;;;;-3.49;100.00;98710.88;4795709;29;102379;-69
2023/03/03 06:15:58;;;;;;;;;91.00;65.25;;;;;-3.40;100.00;98715.50;4799981;29;102157;-69
2023/03/03 06:18:25;;;;;;;;;85.50;58.75;;;;;-3.27;100.00;98724.22;4800433;29;103748;-70
2023/03/03 06:20:53;;;;;;;;;83.00;62.00;;;;;-3.20;100.00;98728.13;4800363;29;102701;-69
2023/03/03 06:23:21;;;;;;;;;72.25;51.75;;;;;-3.09;100.00;98728.16;4797855;29;102631;-70
2023/03/03 06:25:48;;;;;;;;;72.50;52.25;;;;;-2.96;100.00;98721.00;4790526;29;102442;-69
2023/03/03 06:28:15;;;;;;;;;62.75;44.00;;;;;-2.85;100.00;98718.44;4798438;29;103993;-68
2023/03/03 06:30:42;;;;;;;;;60.75;45.00;;;;;-2.77;99.41;98710.75;4799955;29;103887;-69
2023/03/03 06:33:09;;;;;;;;;62.50;46.00;;;;;-2.70;98.06;98716.41;4801865;29;102305;-69
2023/03/03 06:35:36;;;;;;;;;96.75;71.00;;;;;-2.79;97.40;98723.25;4800987;29;102371;-70
2023/03/03 06:38:03;;;;;;;;;109.25;78.00;;;;;-2.77;98.82;98717.84;4798061;29;104375;-69
2023/03/03 06:40:30;;;;;;;;;95.50;69.00;;;;;-2.66;97.71;98711.75;4795514;29;103236;-69
2023/03/03 06:42:57;;;;;;;;;84.25;62.75;;;;;-2.55;97.01;98706.47;4796969;29;103588;-68
2023/03/03 06:45:24;;;;;;;;;90.75;65.25;;;;;-2.52;96.22;98719.50;4797720;29;102497;-70
2023/03/03 06:47:51;;;;;;;;;109.25;83.75;;;;;-2.65;98.07;98729.28;4799291;29;104092;-70
2023/03/03 06:50:19;;;;;;;;;110.50;77.75;;;;;-2.54;99.08;98716.09;4797936;29;102891;-69
2023/03/03 06:52:46;;;;;;;;;119.00;85.25;;;;;-2.71;99.28;98720.88;4797025;29;102541;-70
2023/03/03 06:55:22;;;;;;;;;111.75;82.25;;;;;-2.59;99.05;98718.25;4799736;29;102883;-70
2023/03/03 06:57:49;;;;;;;;;102.75;72.50;;;;;-2.46;99.34;98724.31;4794904;29;103970;-69
2023/03/03 07:00:26;;;;;;;;;107.00;76.75;;;;;-2.42;99.19;98736.34;4797297;29;102271;-69
2023/03/03 07:03:04;;;;;;;;;108.25;80.25;;;;;-2.43;98.87;98713.50;4794808;29;102585;-69
2023/03/03 07:05:33;;;;;;;;;109.25;80.75;;;;;-2.37;99.25;98723.59;4800488;29;102539;-69
2023/03/03 07:08:00;;;;;;;;;99.75;72.00;;;;;-2.21;97.42;98720.63;4798476;29;104027;-69
2023/03/03 07:10:29;;;;;;;;;124.50;96.00;;;;;-2.38;98.02;98729.84;4800122;29;102717;-69
2023/03/03 07:13:15;;;;;;;;;124.50;94.50;;;;;-2.42;98.86;98726.59;4795665;29;102598;-69
2023/03/03 07:15:42;;;;;;;;;152.00;104.50;;;;;-2.49;99.74;98729.84;4794459;29;102364;-70
2023/03/03 07:18:34;;;;;;;;;107.25;77.75;;;;;-2.26;99.43;98724.47;4800960;29;104050;-69
2023/03/03 07:21:35;;;;;;;;;90.75;64.25;;;;;-1.94;99.37;98706.09;4783159;29;106917;-69
2023/03/03 07:24:26;;;;;;;;;81.75;57.25;;;;;-1.67;99.71;98712.81;4795480;29;102062;-70
2023/03/03 07:27:19;;;;;;;;;77.25;53.50;;;;;-1.56;96.37;98720.75;4798024;29;102764;-68
2023/03/03 07:29:50;;;;;;;;;64.00;46.75;;;;;-1.41;96.52;98720.38;4787639;29;108667;-70
2023/03/03 07:32:33;;;;;;;;;122.75;92.00;;;;;-1.60;93.80;98730.75;4798238;29;102407;-68
2023/03/03 07:35:01;;;;;;;;;139.75;108.50;;;;;-1.94;97.10;98742.34;4796611;29;102113;-71
2023/03/03 07:37:37;;;;;;;;;138.00;107.25;;;;;-2.00;98.79;98743.66;4796755;29;102510;-69
2023/03/03 07:40:33;;;;;;;;;142.50;102.00;;;;;-2.07;98.73;98753.03;4794756;29;103964;-69
2023/03/03 07:43:15;;;;;;;;;124.75;96.25;;;;;-2.08;99.42;98742.56;4793510;29;102452;-69
2023/03/03 07:45:42;;;;;;;;;112.00;81.25;;;;;-2.07;99.93;98741.59;4795338;29;102225;-69
2023/03/03 07:48:12;;;;;;;;;110.00;74.25;;;;;-1.90;99.49;98738.47;4798939;29;103425;-70
2023/03/03 07:50:40;;;;;;;;;105.00;75.75;;;;;-1.98;97.15;98720.50;4796894;29;108797;-70
2023/03/03 07:53:35;;;;;;;;;101.50;73.75;;;;;-1.87;98.46;98725.84;4789388;29;103942;-70
2023/03/03 07:56:11;;;;;;;;;107.00;83.25;;;;;-2.00;97.41;98733.06;4794914;29;101906;-70
2023/03/03 07:58:40;;;;;;;;;110.00;79.00;;;;;-2.17;98.17;98741.47;4800859;29;102222;-69
2023/03/03 08:01:30;;;;;;;;;110.50;78.50;;;;;-1.94;99.97;98743.19;4794558;29;108953;-70
2023/03/03 08:03:57;;;;;;;;;136.50;98.25;;;;;-2.18;100.00;98755.66;4793170;29;102877;-69
2023/03/03 08:06:34;;;;;;;;;112.50;87.50;;;;;-2.00;99.96;98751.59;4799063;29;101898;-69
2023/03/03 08:09:28;;;;;;;;;121.75;90.25;;;;;-1.88;99.50;98755.94;4798420;29;102427;-69
2023/03/03 08:12:01;;;;;;;;;114.75;92.75;;;;;-2.00;99.79;98738.34;4794596;29;108086;-70
2023/03/03 08:14:35;;;;;;;;;130.25;97.50;;;;;-2.13;99.46;98742.91;4797548;29;102188;-69
2023/03/03 08:17:14;;;;;;;;;130.50;93.50;;;;;-2.20;100.00;98748.78;4797539;29;102217;-69
2023/03/03 08:19:40;;;;;;;;;123.25;93.50;;;;;-2.23;100.00;98751.69;4797673;29;102599;-70
2023/03/03 08:22:19;;;;;;;;;133.25;92.75;;;;;-2.18;99.50;98742.41;4796209;29;109401;-71
2023/03/03 08:24:46;;;;;;;;;123.00;92.50;;;;;-2.18;99.48;98738.94;4797407;29;102597;-70
2023/03/03 08:27:13;;;;;;;;;113.50;88.50;;;;;-2.36;98.83;98746.47;4797191;29;102231;-69
2023/03/03 08:29:40;;;;;;;;;106.75;68.25;;;;;-2.32;99.68;98758.53;4796710;29;102387;-69
2023/03/03 08:32:07;;;;;;;;;109.75;77.50;;;;;-2.16;100.00;98747.63;4799216;29;108890;-69
2023/03/03 08:34:34;;;;;;;;;98.25;72.00;;;;;-1.94;100.00;98743.19;4797794;29;102566;-69
2023/03/03 08:37:01;;;;;;;;;104.75;74.50;;;;;-2.02;97.62;98753.50;4797559;29;102304;-70
2023/03/03 08:39:28;;;;;;;;;98.50;72.00;;;;;-1.94;99.04;98764.38;4797625;29;101910;-70
2023/03/03 08:41:55;;;;;;;;;99.25;69.50;;;;;-1.91;99.31;98768.59;4801074;29;103977;-70
2023/03/03 08:44:22;;;;;;;;;93.25;68.25;;;;;-1.96;100.00;98771.59;4799436;29;102922;-70
2023/03/03 08:46:49;;;;;;;;;101.75;73.25;;;;;-2.05;99.50;98776.75;4799256;29;103274;-70
2023/03/03 08:49:17;;;;;;;;;105.00;71.50;;;;;-1.96;99.13;98782.19;4801162;29;102411;-70
2023/03/03 08:51:44;;;;;;;;;100.00;67.00;;;;;-1.95;99.80;98775.94;4799799;29;103746;-70
2023/03/03 08:54:11;;;;;;;;;96.25;71.75;;;;;-2.02;99.20;98782.66;4803408;29;102604;-70
2023/03/03 08:56:38;;;;;;;;;96.50;65.25;;;;;-1.88;99.06;98777.13;4800181;29;102360;-69
2023/03/03 08:59:05;;;;;;;;;99.00;71.75;;;;;-2.07;99.98;98779.50;4802420;29;102445;-70
2023/03/03 09:01:32;;;;;;;;;89.50;61.50;;;;;-2.01;100.00;98763.16;4801055;29;103929;-69
2023/03/03 09:03:59;;;;;;;;;83.25;60.00;;;;;-1.79;100.00;98770.28;4798689;29;102469;-69
2023/03/03 09:06:26;;;;;;;;;92.25;65.00;;;;;-1.76;100.00;98764.75;4798297;29;102157;-70
2023/03/03 09:08:53;;;;;;;;;69.25;50.25;;;;;-1.50;99.65;98754.75;4798457;29;102381;-70
2023/03/03 09:11:26;;;;;;;;;88.25;62.50;;;;;-1.51;97.95;98753.03;4782814;29;104033;-66
2023/03/03 09:14:27;;;;;;;;;79.75;56.75;;;;;-1.84;99.26;98754.72;4799471;29;102470;-70
2023/03/03 09:16:56;;;;;;;;;97.25;65.00;;;;;-1.63;98.20;98761.97;4768777;29;102385;-69
2023/03/03 09:19:31;;;;;;;;;88.00;62.50;;;;;-1.67;99.27;98761.38;4775541;29;103947;-69
2023/03/03 09:22:10;;;;;;;;;92.50;61.50;;;;;-1.65;99.18;98755.94;4802292;29;103992;-69
2023/03/03 09:24:37;;;;;;;;;92.50;63.00;;;;;-1.64;99.28;98762.94;4799341;29;102599;-70
2023/03/03 09:27:18;;;;;;;;;88.25;63.75;;;;;-1.77;100.00;98743.66;4801932;29;102032;-69
2023/03/03 09:29:45;;;;;;;;;84.75;59.00;;;;;-1.48;100.00;98761.59;4796584;29;102235;-70
2023/03/03 09:32:33;;;;;;;;;68.50;51.00;;;;;-1.28;100.00;98762.66;4799717;29;103968;-70
2023/03/03 09:35:26;;;;;;;;;75.75;58.50;;;;;-1.71;100.00;98759.09;4799723;29;102278;-69
2023/03/03 09:37:53;;;;;;;;;76.75;55.25;;;;;-1.58;100.00;98767.75;4782040;29;102098;-69
2023/03/03 09:40:44;;;;;;;;;83.25;57.50;;;;;-1.64;100.00;98763.78;4801190;29;102376;-69
2023/03/03 09:43:14;;;;;;;;;77.75;59.25;;;;;-1.73;100.00;98755.69;4798533;29;108551;-68
2023/03/03 09:45:56;;;;;;;;;71.75;54.50;;;;;-1.65;100.00;98771.84;4797540;29;102256;-69
2023/03/03 09:48:46;;;;;;;;;61.00;48.00;;;;;-1.46;100.00;98742.91;4797254;29;102104;-69
2023/03/03 09:51:52;;;;;;;;;66.75;49.75;;;;;-1.22;100.00;98764.84;4798745;29;103905;-69
2023/03/03 09:54:28;;;;;;;;;70.00;51.75;;;;;-1.35;100.00;98772.06;4749113;29;108620;-69
2023/03/03 09:57:07;;;;;;;;;77.75;56.50;;;;;-1.43;100.00;98783.28;4799976;29;103119;-69
2023/03/03 09:59:49;;;;;;;;;72.00;54.25;;;;;-1.46;100.00;98774.72;4800280;29;102103;-69
2023/03/03 10:02:44;;;;;;;;;74.50;52.25;;;;;-1.39;100.00;98787.38;4799184;29;102572;-69
2023/03/03 10:05:31;;;;;;;;;68.50;54.00;;;;;-1.48;100.00;98787.25;4799609;29;108361;-69
2023/03/03 10:08:11;;;;;;;;;62.50;48.50;;;;;-1.64;100.00;98778.84;4798267;29;102336;-68
2023/03/03 10:10:49;;;;;;;;;69.75;48.25;;;;;-1.49;100.00;98769.69;4796700;29;102552;-68
2023/03/03 10:13:50;;;;;;;;;65.25;50.00;;;;;-1.40;100.00;98777.72;4797120;29;102474;-69
2023/03/03 10:16:26;;;;;;;;;57.00;44.75;;;;;-1.39;100.00;98781.22;4794742;29;108689;-69
2023/03/03 10:19:01;;;;;;;;;69.25;48.25;;;;;-1.41;100.00;98788.47;4798899;29;103035;-69
2023/03/03 10:21:47;;;;;;;;;70.00;47.50;;;;;-1.35;100.00;98783.50;4799736;29;102320;-69
2023/03/03 10:24:29;;;;;;;;;59.33;45.67;;;;;-1.31;100.00;98791.25;4798417;29;102545;-69
2023/03/03 10:27:53;;;;;;;;;61.33;46.33;;;;;-1.37;100.00;98793.41;4800666;29;104044;-69
2023/03/03 10:30:34;;;;;;;;;70.25;48.75;;;;;-1.32;100.00;98790.41;4705842;29;102511;-69
2023/03/03 10:33:33;;;;;;;;;63.00;45.00;;;;;-1.25;99.94;98785.44;4707023;29;102830;-69
2023/03/03 10:36:09;;;;;;;;;55.67;44.67;;;;;-1.12;99.08;98794.94;4793703;29;102287;-69
2023/03/03 10:39:02;;;;;;;;;62.50;45.50;;;;;-1.03;100.00;98788.03;4798275;29;104207;-68
2023/03/03 10:41:41;;;;;;;;;62.33;43.67;;;;;-1.04;98.78;98797.00;4799985;29;102332;-69
2023/03/03 10:44:31;;;;;;;;;45.67;40.00;;;;;-1.30;99.29;98790.25;4798397;29;102005;-68
2023/03/03 10:47:16;;;;;;;;;49.00;39.67;;;;;-1.01;98.79;98794.94;4795349;29;102705;-68
2023/03/03 10:50:14;;;;;;;;;53.67;42.33;;;;;-0.95;96.98;98790.94;4795793;29;108593;-69
2023/03/03 10:53:14;;;;;;;;;56.33;43.33;;;;;-1.03;97.96;98804.81;4798069;29;103451;-68
2023/03/03 10:55:52;;;;;;;;;45.67;40.33;;;;;-1.12;98.82;98800.25;4797912;29;102467;-68
2023/03/03 10:58:56;;;;;;;;;64.00;44.67;;;;;-1.08;98.01;98799.03;4795788;29;102026;-69
2023/03/03 11:01:47;;;;;;;;;69.33;49.00;;;;;-1.12;98.63;98802.91;4796372;29;108736;-69
2023/03/03 11:04:44;;;;;;;;;53.00;45.67;;;;;-1.07;96.92;98795.41;4793315;29;102241;-69
2023/03/03 11:07:25;;;;;;;;;59.33;39.67;;;;;-1.06;96.96;98798.91;4798001;28;102557;-69
2023/03/03 11:10:17;;;;;;;;;61.00;42.67;;;;;-1.08;97.34;98798.22;4798807;29;103893;-69
2023/03/03 11:12:56;;;;;;;;;52.00;38.67;;;;;-1.01;95.91;98786.13;4796295;29;104801;-69
2023/03/03 11:15:35;;;;;;;;;55.67;40.00;;;;;-1.07;96.69;98784.81;4798239;29;102660;-69
2023/03/03 11:18:19;;;;;;;;;56.67;45.00;;;;;-0.87;97.60;98785.00;4800061;29;102596;-69
2023/03/03 11:21:06;;;;;;;;;60.67;46.33;;;;;-0.86;95.58;98778.72;4798944;29;102263;-69
2023/03/03 11:23:51;;;;;;;;;66.67;46.00;;;;;-0.86;94.88;98784.88;4797793;29;104036;-69
2023/03/03 11:26:39;;;;;;;;;65.33;48.67;;;;;-0.87;95.23;98785.84;4795672;29;102361;-69
2023/03/03 11:29:30;;;;;;;;;61.67;44.67;;;;;-0.74;94.97;98783.03;4798667;29;102186;-68
2023/03/03 11:32:23;;;;;;;;;62.00;40.33;;;;;-0.72;95.74;98786.41;4797494;29;102484;-68